createdAt,value
2023-08-27T00:00:09.846Z,18.95
2023-08-27T00:05:17.719Z,18.95
2023-08-27T00:10:19.589Z,18.94
2023-08-27T00:15:21.487Z,18.96
2023-08-27T00:20:23.356Z,18.99
2023-08-27T00:25:25.233Z,19.03
2023-08-27T00:30:27.170Z,19.05
2023-08-27T00:35:29.270Z,19.07
2023-08-27T00:40:33.192Z,19.09
2023-08-27T00:45:35.127Z,19.11
2023-08-27T00:50:37.744Z,19.11
2023-08-27T00:55:39.756Z,19.14
2023-08-27T01:00:41.861Z,19.13
2023-08-27T01:05:45.481Z,19.12
2023-08-27T01:11:13.446Z,19.11
2023-08-27T01:16:17.166Z,19.14
2023-08-27T01:21:22.982Z,19.20
2023-08-27T01:26:46.653Z,19.25
2023-08-27T01:32:16.924Z,19.24
2023-08-27T01:37:20.215Z,19.18
2023-08-27T01:42:22.061Z,19.14
2023-08-27T01:47:25.497Z,19.08
2023-08-27T01:52:27.537Z,19.08
2023-08-27T01:57:29.515Z,19.04
2023-08-27T02:02:31.969Z,18.99
2023-08-27T02:07:37.979Z,18.97
2023-08-27T02:12:41.102Z,18.94
2023-08-27T02:17:43.027Z,18.93
2023-08-27T02:22:45.551Z,18.93
2023-08-27T02:27:47.616Z,18.92
2023-08-27T02:32:49.547Z,18.89
2023-08-27T02:37:54.717Z,18.90
2023-08-27T02:42:56.592Z,18.93
2023-08-27T02:47:58.748Z,18.93
2023-08-27T02:53:00.961Z,18.87
2023-08-27T02:58:03.506Z,18.79
2023-08-27T03:03:05.419Z,18.71
2023-08-27T03:08:07.324Z,18.61
2023-08-27T03:13:10.024Z,18.60
2023-08-27T03:18:12.396Z,18.62
2023-08-27T03:23:14.235Z,18.60
2023-08-27T03:28:16.172Z,18.60
2023-08-27T03:33:18.299Z,18.55
2023-08-27T03:38:20.430Z,18.52
2023-08-27T03:43:22.314Z,18.48
2023-08-27T03:48:24.963Z,18.46
2023-08-27T03:53:26.824Z,18.47
2023-08-27T03:58:28.755Z,18.48
2023-08-27T04:03:31.082Z,18.49
2023-08-27T04:08:33.187Z,18.50
2023-08-27T04:13:35.013Z,18.47
2023-08-27T04:18:37.116Z,18.44
2023-08-27T04:23:38.995Z,18.40
2023-08-27T04:28:40.868Z,18.40
2023-08-27T04:33:43.091Z,18.43
2023-08-27T04:38:44.934Z,18.42
2023-08-27T04:43:47.035Z,18.41
2023-08-27T04:48:48.877Z,18.42
2023-08-27T04:53:50.982Z,18.49
2023-08-27T04:58:52.848Z,18.55
2023-08-27T05:03:55.329Z,18.63
2023-08-27T05:08:57.711Z,18.65
2023-08-27T05:13:59.565Z,18.65
2023-08-27T05:19:01.559Z,18.65
2023-08-27T05:24:03.504Z,18.65
2023-08-27T05:29:05.530Z,18.66
2023-08-27T05:34:07.496Z,18.68
2023-08-27T05:39:10.348Z,18.76
2023-08-27T05:44:12.240Z,18.85
2023-08-27T05:49:14.273Z,18.90
2023-08-27T05:54:16.372Z,18.95
2023-08-27T05:59:18.238Z,19.04
2023-08-27T06:04:20.110Z,19.15
2023-08-27T06:09:22.387Z,19.31
2023-08-27T06:14:24.461Z,19.49
2023-08-27T06:19:33.317Z,19.58
2023-08-27T06:24:45.943Z,19.74
2023-08-27T06:29:47.780Z,19.91
2023-08-27T06:34:50.421Z,20.15
2023-08-27T06:39:52.450Z,20.58
2023-08-27T06:44:54.436Z,20.93
2023-08-27T06:49:57.330Z,21.13
2023-08-27T06:55:00.463Z,21.32
2023-08-27T07:00:02.601Z,21.51
2023-08-27T07:05:10.197Z,21.70
2023-08-27T07:10:13.278Z,21.99
2023-08-27T07:15:15.206Z,22.18
2023-08-27T07:20:17.454Z,22.36
2023-08-27T07:25:19.747Z,22.50
2023-08-27T07:30:22.445Z,22.62
2023-08-27T07:35:25.699Z,22.74
2023-08-27T07:40:27.649Z,22.73
2023-08-27T07:45:29.651Z,22.73
2023-08-27T07:50:31.707Z,22.78
2023-08-27T07:55:36.039Z,22.79
2023-08-27T08:00:38.290Z,22.86
2023-08-27T08:05:40.319Z,22.89
2023-08-27T08:10:42.212Z,22.78
2023-08-27T08:15:44.165Z,22.57
2023-08-27T08:20:46.559Z,22.58
2023-08-27T08:25:51.310Z,22.60
2023-08-27T08:30:53.400Z,22.57
2023-08-27T08:35:55.347Z,22.56
2023-08-27T08:41:03.163Z,22.63
2023-08-27T08:46:06.969Z,22.77
2023-08-27T08:51:10.555Z,22.85
2023-08-27T08:56:15.300Z,22.93
2023-08-27T09:01:20.580Z,23.04
2023-08-27T09:06:23.929Z,23.17
2023-08-27T09:11:27.584Z,23.34
2023-08-27T09:16:29.552Z,23.43
2023-08-27T09:21:31.605Z,23.64
2023-08-27T09:26:34.267Z,23.79
2023-08-27T09:31:40.766Z,23.74
2023-08-27T09:36:42.820Z,23.72
2023-08-27T09:41:46.079Z,23.93
2023-08-27T09:46:48.734Z,24.19
2023-08-27T09:51:57.712Z,24.38
2023-08-27T09:57:02.569Z,24.65
2023-08-27T10:02:13.867Z,24.74
2023-08-27T10:07:15.937Z,24.99
2023-08-27T10:12:19.083Z,25.12
2023-08-27T10:17:21.624Z,25.35
2023-08-27T10:22:24.440Z,25.53
2023-08-27T10:27:26.375Z,25.81
2023-08-27T10:32:28.293Z,25.97
2023-08-27T10:37:30.947Z,26.23
2023-08-27T10:42:34.782Z,26.48
2023-08-27T10:47:36.664Z,26.64
2023-08-27T10:52:52.715Z,26.87
2023-08-27T10:58:14.449Z,26.94
2023-08-27T11:03:16.432Z,26.71
2023-08-27T11:08:35.244Z,26.83
2023-08-27T11:13:42.574Z,26.83
2023-08-27T11:18:49.197Z,26.65
2023-08-27T11:24:13.124Z,26.49
2023-08-27T11:29:15.814Z,26.36
2023-08-27T11:34:17.696Z,26.26
2023-08-27T11:39:19.673Z,26.48
2023-08-27T11:44:22.071Z,26.69
2023-08-27T11:49:31.125Z,26.91
2023-08-27T11:54:35.062Z,27.07
2023-08-27T11:59:39.096Z,27.09
2023-08-27T12:04:43.166Z,27.01
2023-08-27T12:09:45.234Z,26.95
2023-08-27T12:14:48.638Z,26.65
2023-08-27T12:19:50.491Z,26.61
2023-08-27T12:24:52.366Z,26.76
2023-08-27T12:29:54.789Z,26.81
2023-08-27T12:34:56.671Z,26.85
2023-08-27T12:39:58.555Z,26.82
2023-08-27T12:45:00.442Z,26.82
2023-08-27T12:50:02.316Z,26.69
2023-08-27T12:55:04.909Z,26.49
2023-08-27T13:00:09.929Z,26.41
2023-08-27T13:05:11.824Z,26.41
2023-08-27T13:10:13.825Z,26.49
2023-08-27T13:15:15.768Z,26.72
2023-08-27T13:20:17.729Z,26.91
2023-08-27T13:25:19.756Z,27.07
2023-08-27T13:30:23.882Z,27.19
2023-08-27T13:35:26.233Z,27.47
2023-08-27T13:40:29.045Z,27.62
2023-08-27T13:45:31.051Z,27.57
2023-08-27T13:50:33.278Z,27.49
2023-08-27T13:55:35.439Z,27.35
2023-08-27T14:00:37.556Z,27.19
2023-08-27T14:05:42.360Z,27.11
2023-08-27T14:10:44.176Z,26.97
2023-08-27T14:15:47.374Z,26.87
2023-08-27T14:20:49.361Z,26.92
2023-08-27T14:25:51.619Z,27.01
2023-08-27T14:30:53.604Z,26.91
2023-08-27T14:35:55.519Z,26.91
2023-08-27T14:40:57.933Z,26.93
2023-08-27T14:45:59.779Z,26.88
2023-08-27T14:51:01.631Z,26.85
2023-08-27T14:56:05.289Z,26.86
2023-08-27T15:01:07.519Z,26.73
2023-08-27T15:06:09.431Z,26.53
2023-08-27T15:11:11.418Z,26.47
2023-08-27T15:16:13.283Z,26.61
2023-08-27T15:21:15.168Z,26.75
2023-08-27T15:26:17.206Z,26.77
2023-08-27T15:31:19.154Z,26.84
2023-08-27T15:36:21.051Z,26.82
2023-08-27T15:41:22.933Z,26.72
2023-08-27T15:46:25.077Z,26.65
2023-08-27T15:51:27.141Z,26.65
2023-08-27T15:56:28.977Z,26.58
2023-08-27T16:01:30.975Z,26.46
2023-08-27T16:06:32.762Z,26.39
2023-08-27T16:11:34.665Z,26.18
2023-08-27T16:16:37.730Z,26.07
2023-08-27T16:21:39.648Z,25.93
2023-08-27T16:26:41.517Z,25.74
2023-08-27T16:31:43.445Z,25.69
2023-08-27T16:36:45.448Z,25.70
2023-08-27T16:41:47.378Z,25.61
2023-08-27T16:46:50.618Z,25.46
2023-08-27T16:51:52.445Z,25.27
2023-08-27T16:56:55.015Z,25.18
2023-08-27T17:01:57.337Z,25.13
2023-08-27T17:06:59.200Z,25.06
2023-08-27T17:12:01.062Z,24.98
2023-08-27T17:17:03.466Z,24.87
2023-08-27T17:22:05.387Z,24.75
2023-08-27T17:27:07.430Z,24.57
2023-08-27T17:32:10.173Z,24.32
2023-08-27T17:37:12.062Z,24.09
2023-08-27T17:42:13.998Z,23.90
2023-08-27T17:47:16.048Z,23.79
2023-08-27T17:52:17.913Z,23.70
2023-08-27T17:57:19.909Z,23.60
2023-08-27T18:02:21.814Z,23.48
2023-08-27T18:07:23.774Z,23.35
2023-08-27T18:12:25.702Z,23.22
2023-08-27T18:17:27.597Z,23.12
2023-08-27T18:22:29.405Z,23.02
2023-08-27T18:27:31.413Z,22.93
2023-08-27T18:32:33.740Z,22.82
2023-08-27T18:37:35.640Z,22.70
2023-08-27T18:42:37.859Z,22.57
2023-08-27T18:47:39.739Z,22.45
2023-08-27T18:52:41.624Z,22.34
2023-08-27T18:57:43.515Z,22.26
2023-08-27T19:02:45.471Z,22.19
2023-08-27T19:07:47.539Z,22.10
2023-08-27T19:12:49.437Z,22.03
2023-08-27T19:17:51.362Z,21.96
2023-08-27T19:22:54.967Z,21.88
2023-08-27T19:27:56.865Z,21.80
2023-08-27T19:32:58.706Z,21.72
2023-08-27T19:38:03.387Z,21.65
2023-08-27T19:43:05.629Z,21.59
2023-08-27T19:48:07.527Z,21.51
2023-08-27T19:53:10.305Z,21.45
2023-08-27T19:58:12.257Z,21.41
2023-08-27T20:03:14.537Z,21.41
2023-08-27T20:08:16.467Z,21.40
2023-08-27T20:13:19.955Z,21.38
2023-08-27T20:18:21.848Z,21.34
2023-08-27T20:23:24.160Z,21.30
2023-08-27T20:28:26.152Z,21.25
2023-08-27T20:33:28.010Z,21.18
2023-08-27T20:38:29.838Z,21.13
2023-08-27T20:43:34.740Z,21.04
2023-08-27T20:48:36.595Z,20.95
2023-08-27T20:53:39.338Z,20.85
2023-08-27T20:58:41.340Z,20.75
2023-08-27T21:03:43.302Z,20.71
2023-08-27T21:08:48.777Z,20.65
2023-08-27T21:13:50.674Z,20.59
2023-08-27T21:18:52.582Z,20.57
2023-08-27T21:23:54.601Z,20.53
2023-08-27T21:28:56.558Z,20.48
2023-08-27T21:33:59.168Z,20.45
2023-08-27T21:39:01.090Z,20.44
2023-08-27T21:44:03.108Z,20.39
2023-08-27T21:49:05.202Z,20.36
2023-08-27T21:54:07.106Z,20.31
2023-08-27T21:59:09.064Z,20.22
2023-08-27T22:04:11.080Z,20.15
2023-08-27T22:09:12.980Z,20.07
2023-08-27T22:14:17.204Z,20.01
2023-08-27T22:19:23.932Z,19.94
2023-08-27T22:24:26.677Z,19.86
2023-08-27T22:29:28.763Z,19.79
2023-08-27T22:34:30.722Z,19.72
2023-08-27T22:39:32.625Z,19.63
2023-08-27T22:44:34.565Z,19.41
2023-08-27T22:49:36.436Z,19.13
2023-08-27T22:54:39.981Z,18.87
2023-08-27T22:59:41.838Z,18.64
2023-08-27T23:04:44.831Z,18.49
2023-08-27T23:09:54.401Z,18.39
2023-08-27T23:14:56.344Z,18.33
2023-08-27T23:19:58.197Z,18.27
2023-08-27T23:25:01.602Z,18.22
2023-08-27T23:30:09.257Z,18.14
2023-08-27T23:35:11.436Z,18.08
2023-08-27T23:40:13.397Z,18.00
2023-08-27T23:45:16.190Z,17.92
2023-08-27T23:50:18.118Z,17.87
2023-08-27T23:55:20.018Z,17.83
